Time;durP1;ratioP1;P1;durP2;ratioP2;P2;SDS_P1;SDS_P2;PMS_P1;PMS_P2;Temp;Humidity;BMP_temperature;BMP_pressure;BME280_temperature;BME280_humidity;BME280_pressure;Samples;Min_cycle;Max_cycle;Signal;HPM_P1;HPM_P2
2022/04/06 00:00:08;;;;;;;7.25;2.50;;;21.00;46.60;;;;;;5016457;28;20038;-62
2022/04/06 00:02:34;;;;;;;3.05;2.20;;;20.90;46.60;;;;;;4998196;28;20057;-63
2022/04/06 00:05:00;;;;;;;6.60;2.60;;;20.90;46.60;;;;;;5017442;28;20054;-61
2022/04/06 00:07:26;;;;;;;4.43;2.33;;;20.90;46.50;;;;;;5019881;28;20491;-60
2022/04/06 00:09:52;;;;;;;3.10;2.13;;;20.90;46.50;;;;;;5035686;28;20084;-61
2022/04/06 00:12:17;;;;;;;4.63;2.15;;;20.90;46.60;;;;;;5034250;28;20092;-60
2022/04/06 00:14:43;;;;;;;5.47;2.42;;;20.90;46.60;;;;;;5017743;28;20053;-60
2022/04/06 00:17:12;;;;;;;4.30;2.33;;;20.90;46.60;;;;;;5014661;28;20167;-61
2022/04/06 00:19:38;;;;;;;4.57;2.22;;;20.90;46.60;;;;;;5017454;28;20051;-60
2022/04/06 00:22:04;;;;;;;5.63;2.38;;;20.90;46.60;;;;;;5034275;28;20397;-62
2022/04/06 00:24:30;;;;;;;3.67;2.22;;;20.90;47.30;;;;;;5033038;28;20052;-62
2022/04/06 00:26:56;;;;;;;3.67;2.20;;;20.80;46.50;;;;;;5023893;28;20052;-60
2022/04/06 00:29:22;;;;;;;8.43;3.05;;;20.80;46.80;;;;;;5016676;28;20061;-62
2022/04/06 00:31:47;;;;;;;4.18;2.50;;;20.80;46.50;;;;;;5016653;28;20056;-60
2022/04/06 00:34:13;;;;;;;7.53;3.22;;;20.80;46.50;;;;;;5034597;28;20049;-60
2022/04/06 00:36:39;;;;;;;4.32;2.45;;;20.80;46.40;;;;;;5033946;28;20144;-60
2022/04/06 00:39:04;;;;;;;4.80;2.53;;;20.80;46.50;;;;;;5034161;28;20342;-62
2022/04/06 00:41:30;;;;;;;6.00;2.90;;;20.80;46.40;;;;;;5036307;28;20045;-62
2022/04/06 00:44:09;;;;;;;5.03;2.42;;;20.80;46.40;;;;;;5015238;28;20619;-60
2022/04/06 00:46:35;;;;;;;3.60;2.15;;;20.80;46.40;;;;;;5011431;28;20059;-62
2022/04/06 00:49:00;;;;;;;4.65;2.45;;;20.80;46.40;;;;;;5034131;28;20576;-60
2022/04/06 00:51:26;;;;;;;5.07;2.65;;;20.80;46.40;;;;;;5018314;28;20619;-61
2022/04/06 00:53:51;;;;;;;4.60;2.88;;;20.70;46.30;;;;;;5035118;28;20045;-60
2022/04/06 00:56:17;;;;;;;7.22;3.08;;;20.70;46.30;;;;;;5017419;28;20048;-61
2022/04/06 00:58:43;;;;;;;4.18;2.22;;;20.70;46.30;;;;;;5032386;28;20423;-62
2022/04/06 01:01:09;;;;;;;4.70;2.50;;;20.70;46.30;;;;;;5033580;28;20052;-61
2022/04/06 01:03:34;;;;;;;6.55;2.72;;;20.70;46.30;;;;;;5034032;28;20076;-61
2022/04/06 01:06:00;;;;;;;4.60;2.60;;;20.70;46.30;;;;;;5033792;28;20045;-61
2022/04/06 01:08:27;;;;;;;6.97;2.80;;;20.70;46.30;;;;;;5015277;28;20049;-62
2022/04/06 01:10:52;;;;;;;5.90;2.47;;;20.70;46.30;;;;;;5033081;28;20045;-61
2022/04/06 01:13:19;;;;;;;5.30;2.53;;;20.70;46.30;;;;;;5016332;28;20411;-61
2022/04/06 01:15:44;;;;;;;5.10;2.63;;;20.60;46.20;;;;;;5016014;28;20041;-61
2022/04/06 01:18:10;;;;;;;5.32;2.60;;;20.70;46.30;;;;;;5034923;28;20068;-61
2022/04/06 01:20:36;;;;;;;5.63;2.67;;;20.70;46.20;;;;;;5032295;28;20041;-60
2022/04/06 01:23:03;;;;;;;4.70;2.78;;;20.60;46.20;;;;;;5035210;28;20036;-61
2022/04/06 01:25:29;;;;;;;5.30;2.70;;;20.60;46.30;;;;;;5017364;28;20443;-60
2022/04/06 01:27:54;;;;;;;6.97;2.90;;;20.60;46.30;;;;;;5033253;28;20052;-61
2022/04/06 01:30:20;;;;;;;4.45;2.35;;;20.60;46.20;;;;;;5013776;28;20057;-61
2022/04/06 01:32:46;;;;;;;4.85;2.42;;;20.60;46.20;;;;;;5031745;28;20046;-61
2022/04/06 01:35:11;;;;;;;6.05;2.67;;;20.60;46.20;;;;;;5013423;28;20044;-60
2022/04/06 01:37:37;;;;;;;6.78;2.83;;;20.60;46.20;;;;;;5012729;28;20127;-61
2022/04/06 01:40:04;;;;;;;6.40;3.00;;;20.60;46.20;;;;;;5011849;28;20041;-62
2022/04/06 01:42:31;;;;;;;4.43;2.33;;;20.60;46.90;;;;;;5012338;28;20053;-61
2022/04/06 01:44:58;;;;;;;4.72;2.47;;;20.50;46.10;;;;;;5016471;28;20170;-61
2022/04/06 01:47:23;;;;;;;5.35;2.17;;;20.50;46.10;;;;;;5014576;28;20036;-61
2022/04/06 01:52:35;;;;;;;7.18;2.42;;;20.60;46.20;;;;;;5033587;28;20131;-62
2022/04/06 01:55:10;;;;;;;7.60;2.45;;;20.50;46.10;;;;;;5033403;28;21961;-61
2022/04/06 01:57:37;;;;;;;6.95;2.40;;;20.50;46.10;;;;;;5015264;28;20091;-62
2022/04/06 02:00:06;;;;;;;5.68;2.47;;;20.50;46.10;;;;;;5013820;28;20523;-63
2022/04/06 02:02:32;;;;;;;3.85;2.40;;;20.50;46.20;;;;;;5027972;28;20041;-61
2022/04/06 02:05:00;;;;;;;3.95;2.22;;;20.50;46.10;;;;;;5011706;28;20052;-62
2022/04/06 02:07:27;;;;;;;4.75;2.33;;;20.50;46.10;;;;;;5028738;28;20044;-61
2022/04/06 02:09:53;;;;;;;3.63;1.98;;;20.50;46.10;;;;;;5016758;28;20063;-62
2022/04/06 02:12:22;;;;;;;5.75;2.40;;;20.50;46.10;;;;;;5033365;28;20086;-62
2022/04/06 02:14:48;;;;;;;3.95;2.25;;;20.50;46.00;;;;;;5032502;28;20120;-62
2022/04/06 02:17:14;;;;;;;4.82;2.22;;;20.50;46.00;;;;;;5035159;28;20175;-61
2022/04/06 02:19:39;;;;;;;4.15;2.03;;;20.50;46.00;;;;;;5013970;28;20049;-61
2022/04/06 02:22:06;;;;;;;5.93;2.35;;;20.50;46.00;;;;;;5014587;28;20049;-62
2022/04/06 02:24:32;;;;;;;4.78;1.83;;;20.40;45.90;;;;;;5034140;28;20550;-61
2022/04/06 02:26:58;;;;;;;4.53;2.10;;;20.40;46.00;;;;;;5033361;28;20079;-62
2022/04/06 02:29:25;;;;;;;4.78;1.90;;;20.40;46.00;;;;;;5032742;28;20072;-61
2022/04/06 02:31:50;;;;;;;5.18;2.35;;;20.40;45.90;;;;;;5032127;28;20216;-61
2022/04/06 02:34:16;;;;;;;5.40;2.53;;;20.40;46.70;;;;;;5030874;28;20156;-61
2022/04/06 02:36:42;;;;;;;5.18;2.15;;;20.40;46.00;;;;;;5031775;28;20045;-61
2022/04/06 02:39:07;;;;;;;4.60;2.05;;;20.40;46.00;;;;;;5031310;28;20148;-62
2022/04/06 02:41:33;;;;;;;5.80;2.75;;;20.40;46.00;;;;;;5032158;28;20048;-61
2022/04/06 02:43:59;;;;;;;5.38;2.10;;;20.40;45.90;;;;;;5031365;28;20065;-64
2022/04/06 02:46:24;;;;;;;5.70;1.88;;;20.40;45.90;;;;;;5032988;28;20080;-63
2022/04/06 02:48:50;;;;;;;5.60;2.17;;;20.40;46.00;;;;;;5031645;28;20412;-62
2022/04/06 02:51:15;;;;;;;6.70;2.47;;;20.40;45.90;;;;;;5033906;28;20045;-61
2022/04/06 02:53:41;;;;;;;4.15;2.00;;;20.40;45.90;;;;;;5017301;28;20493;-61
2022/04/06 02:56:07;;;;;;;5.28;1.73;;;20.30;45.90;;;;;;5035536;28;20048;-62
2022/04/06 02:58:32;;;;;;;5.32;2.33;;;20.30;45.90;;;;;;5019824;28;20041;-61
2022/04/06 03:00:58;;;;;;;5.55;2.30;;;20.30;45.90;;;;;;5036258;28;20167;-61
2022/04/06 03:03:25;;;;;;;5.20;2.42;;;20.30;45.80;;;;;;5015435;28;20053;-62
2022/04/06 03:05:51;;;;;;;3.53;2.22;;;20.30;45.80;;;;;;5033140;28;20322;-61
2022/04/06 03:08:16;;;;;;;5.20;2.17;;;20.30;45.90;;;;;;5035005;28;20474;-61
2022/04/06 03:10:42;;;;;;;5.82;2.63;;;20.30;45.90;;;;;;5038602;28;20041;-62
2022/04/06 03:13:08;;;;;;;4.13;2.00;;;20.30;46.00;;;;;;5034870;28;20532;-61
2022/04/06 03:15:33;;;;;;;7.07;2.25;;;20.30;46.00;;;;;;5036718;28;20057;-61
2022/04/06 03:17:59;;;;;;;4.47;2.10;;;20.30;46.00;;;;;;5015567;28;20514;-61
2022/04/06 03:20:24;;;;;;;4.72;2.15;;;20.30;46.00;;;;;;5036501;28;20084;-62
2022/04/06 03:22:50;;;;;;;5.00;2.30;;;20.30;46.00;;;;;;5034638;28;20056;-62
2022/04/06 03:25:16;;;;;;;6.22;2.60;;;20.30;46.00;;;;;;5036987;28;20041;-61
2022/04/06 03:27:41;;;;;;;6.47;2.60;;;20.30;46.00;;;;;;5036933;28;20053;-62
2022/04/06 03:30:12;;;;;;;4.80;2.25;;;20.30;46.00;;;;;;5018469;28;20056;-61
2022/04/06 03:32:38;;;;;;;;;;;20.30;46.00;;;;;;5018478;28;20386;-61
2022/04/06 03:35:05;;;;;;;6.10;2.47;;;20.30;46.00;;;;;;5019369;28;19935;-62
2022/04/06 03:37:31;;;;;;;5.70;2.15;;;20.20;46.10;;;;;;5036705;28;20103;-61
2022/04/06 03:39:56;;;;;;;5.32;2.80;;;20.20;46.10;;;;;;5036266;28;20737;-61
2022/04/06 03:42:22;;;;;;;4.78;2.33;;;20.20;46.10;;;;;;5033583;28;20041;-61
2022/04/06 03:44:48;;;;;;;6.55;2.70;;;20.20;46.10;;;;;;5017010;28;20646;-61
2022/04/06 03:47:13;;;;;;;6.72;2.90;;;20.20;46.10;;;;;;5000222;28;20084;-61
2022/04/06 03:49:39;;;;;;;3.10;2.10;;;20.20;46.10;;;;;;5034855;28;20053;-61
2022/04/06 03:52:05;;;;;;;6.30;2.65;;;20.20;46.10;;;;;;5017086;28;20053;-60
2022/04/06 03:54:30;;;;;;;5.95;2.63;;;20.20;46.00;;;;;;5036376;28;20083;-61
2022/04/06 03:56:56;;;;;;;6.45;2.45;;;20.20;46.00;;;;;;5034525;28;20065;-60
2022/04/06 03:59:21;;;;;;;4.90;2.65;;;20.20;46.10;;;;;;5037349;28;20510;-62
2022/04/06 04:01:47;;;;;;;7.32;2.35;;;20.20;46.10;;;;;;5030781;28;20103;-61
2022/04/06 04:04:12;;;;;;;4.68;2.35;;;20.20;46.10;;;;;;5014578;28;20064;-60
2022/04/06 04:06:38;;;;;;;5.25;2.30;;;20.20;46.00;;;;;;5013034;28;20041;-61
2022/04/06 04:09:04;;;;;;;8.35;2.53;;;20.20;46.00;;;;;;5036718;28;20041;-61
2022/04/06 04:11:30;;;;;;;6.18;2.60;;;20.20;46.00;;;;;;5014810;28;20049;-61
2022/04/06 04:13:56;;;;;;;8.73;2.70;;;20.10;45.90;;;;;;5017509;28;20048;-61
2022/04/06 04:16:22;;;;;;;5.53;2.20;;;20.10;45.90;;;;;;5024827;28;20530;-60
2022/04/06 04:18:47;;;;;;;6.80;2.92;;;20.10;45.90;;;;;;5035677;28;20053;-61
2022/04/06 04:21:32;;;;;;;7.45;2.70;;;20.10;46.00;;;;;;4999065;28;20347;-60
2022/04/06 04:23:58;;;;;;;4.63;2.35;;;20.10;45.90;;;;;;5019430;28;20141;-61
2022/04/06 04:26:23;;;;;;;4.57;2.30;;;20.10;45.80;;;;;;5017986;28;20073;-60
2022/04/06 04:28:49;;;;;;;5.28;2.22;;;20.10;45.80;;;;;;5013546;28;20135;-61
2022/04/06 04:31:14;;;;;;;8.32;2.13;;;20.10;46.00;;;;;;5033909;28;20484;-61
2022/04/06 04:33:41;;;;;;;4.82;1.90;;;20.10;45.90;;;;;;5033522;28;20173;-61
2022/04/06 04:36:06;;;;;;;6.05;2.28;;;20.10;45.90;;;;;;5034819;28;20052;-61
2022/04/06 04:38:32;;;;;;;5.60;2.42;;;20.10;45.80;;;;;;5015226;28;20049;-59
2022/04/06 04:40:58;;;;;;;4.03;2.17;;;20.10;45.70;;;;;;5034063;28;20048;-60
2022/04/06 04:43:23;;;;;;;5.28;1.98;;;20.10;45.70;;;;;;5015608;28;20191;-60
2022/04/06 04:45:49;;;;;;;6.28;2.30;;;20.10;45.60;;;;;;5033974;28;20481;-60
2022/04/06 04:48:14;;;;;;;4.40;2.33;;;20.10;45.70;;;;;;5017563;28;20072;-62
2022/04/06 04:50:40;;;;;;;5.35;2.20;;;20.10;45.70;;;;;;5016339;28;20092;-62
2022/04/06 04:53:06;;;;;;;3.72;1.98;;;20.10;45.70;;;;;;5034461;28;20079;-61
2022/04/06 04:55:32;;;;;;;6.40;2.33;;;20.10;45.70;;;;;;5015752;28;20456;-61
2022/04/06 04:57:58;;;;;;;6.25;2.75;;;20.10;45.80;;;;;;5017212;28;20049;-62
2022/04/06 05:00:24;;;;;;;5.63;2.28;;;20.10;45.70;;;;;;5033461;28;20048;-62
2022/04/06 05:02:49;;;;;;;5.40;2.17;;;20.10;45.70;;;;;;5016087;28;20052;-61
2022/04/06 05:05:15;;;;;;;5.90;2.20;;;20.10;45.70;;;;;;5036468;28;20079;-61
2022/04/06 05:07:40;;;;;;;6.72;2.13;;;20.10;45.70;;;;;;5035829;28;20300;-61
2022/04/06 05:10:08;;;;;;;7.15;2.20;;;20.10;45.70;;;;;;5033348;28;20404;-62
2022/04/06 05:12:34;;;;;;;4.93;1.88;;;20.10;45.70;;;;;;5036437;28;20464;-61
2022/04/06 05:15:00;;;;;;;4.90;1.90;;;20.10;45.70;;;;;;5013913;28;20057;-61
2022/04/06 05:17:27;;;;;;;6.57;2.10;;;20.10;45.70;;;;;;5016006;28;20540;-61
2022/04/06 05:19:53;;;;;;;3.72;1.50;;;20.10;45.60;;;;;;5034789;28;20111;-62
2022/04/06 05:22:19;;;;;;;4.78;1.80;;;20.10;45.60;;;;;;5034679;28;20098;-61
2022/04/06 05:24:44;;;;;;;4.35;1.60;;;20.10;45.50;;;;;;5017574;28;20044;-64
2022/04/06 05:27:10;;;;;;;4.78;1.70;;;20.10;45.50;;;;;;5030806;28;20052;-64
2022/04/06 05:29:36;;;;;;;4.55;1.92;;;20.10;45.40;;;;;;5035390;28;20645;-61
2022/04/06 05:32:02;;;;;;;4.18;1.50;;;20.10;45.50;;;;;;5016715;28;20124;-62
2022/04/06 05:34:29;;;;;;;5.13;1.70;;;20.10;45.30;;;;;;5033948;28;20053;-61
2022/04/06 05:36:55;;;;;;;5.15;1.65;;;20.10;45.30;;;;;;5015430;28;20077;-61
2022/04/06 05:39:21;;;;;;;4.63;1.70;;;20.10;45.40;;;;;;5034751;28;20055;-61
2022/04/06 05:41:47;;;;;;;6.07;1.85;;;20.10;45.40;;;;;;5033977;28;20049;-62
2022/04/06 05:44:12;;;;;;;4.05;1.52;;;20.10;45.50;;;;;;5020215;28;20065;-61
2022/04/06 05:46:38;;;;;;;4.63;1.88;;;20.10;45.50;;;;;;5035327;28;20048;-60
2022/04/06 05:49:04;;;;;;;6.28;1.67;;;20.10;45.50;;;;;;5034092;28;20059;-60
2022/04/06 05:51:30;;;;;;;5.18;1.60;;;20.10;45.50;;;;;;5032504;28;20048;-60
2022/04/06 05:53:55;;;;;;;5.32;2.05;;;20.10;45.50;;;;;;5031926;28;20146;-60
2022/04/06 05:56:21;;;;;;;5.05;1.63;;;20.10;45.50;;;;;;5013675;28;20045;-60
2022/04/06 05:58:47;;;;;;;6.45;1.77;;;20.10;45.50;;;;;;5032199;28;20050;-60
2022/04/06 06:01:12;;;;;;;7.13;1.60;;;20.10;45.40;;;;;;5031549;28;20393;-61
2022/04/06 06:03:38;;;;;;;5.53;1.67;;;20.10;45.40;;;;;;5012825;28;20053;-60
2022/04/06 06:06:03;;;;;;;4.25;1.55;;;20.10;45.40;;;;;;5030792;28;20246;-62
2022/04/06 06:08:29;;;;;;;3.78;1.40;;;20.10;45.40;;;;;;5032891;28;20051;-62
2022/04/06 06:10:55;;;;;;;2.80;1.33;;;20.10;45.30;;;;;;5034538;28;20049;-61
2022/04/06 06:13:22;;;;;;;4.50;1.50;;;20.10;45.40;;;;;;5012297;28;20452;-59
2022/04/06 06:15:48;;;;;;;2.80;1.20;;;20.10;45.40;;;;;;5014840;28;20044;-59
2022/04/06 06:18:14;;;;;;;3.58;1.40;;;20.10;45.40;;;;;;5023167;28;20308;-61
2022/04/06 06:20:40;;;;;;;3.63;1.38;;;20.10;45.30;;;;;;5035642;28;20048;-61
2022/04/06 06:23:06;;;;;;;2.45;1.10;;;20.20;45.40;;;;;;5017143;28;20075;-61
2022/04/06 06:25:32;;;;;;;3.63;1.40;;;20.20;45.40;;;;;;5015742;28;20049;-61
2022/04/06 06:27:57;;;;;;;3.10;1.65;;;20.20;45.40;;;;;;5035293;28;20041;-62
2022/04/06 06:30:26;;;;;;;2.92;1.30;;;20.20;45.40;;;;;;5021246;28;20048;-62
2022/04/06 06:32:53;;;;;;;3.25;1.55;;;20.20;45.40;;;;;;5036480;28;20050;-62
2022/04/06 06:35:20;;;;;;;4.80;1.52;;;20.20;45.40;;;;;;5017515;28;20045;-62
2022/04/06 06:37:50;;;;;;;5.95;1.20;;;20.20;45.40;;;;;;5036739;28;20059;-62
2022/04/06 06:40:17;;;;;;;4.70;1.50;;;20.20;45.50;;;;;;5021815;28;20049;-61
2022/04/06 06:42:43;;;;;;;4.13;1.25;;;20.20;45.50;;;;;;5036995;28;20144;-61
2022/04/06 06:45:09;;;;;;;2.60;1.30;;;20.20;45.50;;;;;;5037293;28;20071;-61
2022/04/06 06:47:35;;;;;;;5.28;1.40;;;20.30;45.70;;;;;;5035800;28;20099;-61
2022/04/06 06:50:01;;;;;;;6.38;1.50;;;20.30;45.80;;;;;;5035502;28;20049;-62
2022/04/06 06:52:27;;;;;;;5.35;1.13;;;20.30;45.80;;;;;;5034647;28;20044;-63
2022/04/06 06:54:52;;;;;;;5.15;1.33;;;20.30;45.80;;;;;;5019148;28;20381;-63
2022/04/06 06:57:18;;;;;;;5.88;1.10;;;20.30;46.20;;;;;;5036974;28;20045;-61
2022/04/06 06:59:43;;;;;;;2.85;1.13;;;20.30;45.80;;;;;;5016012;28;20067;-61
2022/04/06 07:02:09;;;;;;;2.95;1.30;;;20.30;45.80;;;;;;5037388;28;20075;-60
2022/04/06 07:04:36;;;;;;;4.35;1.50;;;20.30;45.80;;;;;;5034787;28;20052;-62
2022/04/06 07:07:01;;;;;;;3.08;1.08;;;20.40;45.90;;;;;;5036462;28;20041;-62
2022/04/06 07:09:27;;;;;;;5.57;1.40;;;20.40;45.90;;;;;;5016393;28;20076;-62
2022/04/06 07:11:53;;;;;;;4.10;1.40;;;20.40;45.90;;;;;;5034548;28;20039;-61
2022/04/06 07:14:19;;;;;;;3.25;1.10;;;20.40;46.00;;;;;;5034392;28;20452;-61
2022/04/06 07:16:45;;;;;;;2.45;1.08;;;20.40;46.10;;;;;;5035682;28;20139;-61
2022/04/06 07:19:10;;;;;;;3.40;1.30;;;20.40;46.10;;;;;;5007949;28;20142;-63
2022/04/06 07:21:36;;;;;;;3.00;1.27;;;20.40;46.10;;;;;;5032804;28;20122;-61
2022/04/06 07:24:03;;;;;;;4.80;1.63;;;20.40;46.10;;;;;;5016802;28;20041;-61
2022/04/06 07:26:30;;;;;;;3.88;1.20;;;20.40;46.20;;;;;;5015524;28;20056;-61
2022/04/06 07:28:56;;;;;;;3.97;1.20;;;20.50;46.30;;;;;;4998891;28;20076;-63
2022/04/06 07:31:22;;;;;;;2.35;1.15;;;20.50;46.30;;;;;;5023131;28;20135;-63
2022/04/06 07:33:47;;;;;;;4.22;1.52;;;20.50;47.00;;;;;;4999764;28;20049;-62
2022/04/06 07:36:17;;;;;;;5.43;1.40;;;20.50;46.30;;;;;;5032978;28;20053;-61
2022/04/06 07:38:43;;;;;;;2.55;1.30;;;20.50;46.40;;;;;;5036100;28;20037;-62
2022/04/06 07:41:08;;;;;;;3.63;1.05;;;20.50;46.40;;;;;;5033691;28;20079;-62
2022/04/06 07:43:34;;;;;;;4.13;1.20;;;20.50;46.40;;;;;;5033907;28;20115;-62
2022/04/06 07:45:59;;;;;;;6.00;1.23;;;20.50;46.50;;;;;;5026979;28;20050;-62
2022/04/06 07:48:27;;;;;;;4.30;1.45;;;20.50;46.60;;;;;;5034497;28;20041;-61
2022/04/06 07:50:56;;;;;;;3.40;1.35;;;20.50;46.70;;;;;;5021129;28;20098;-61
2022/04/06 07:53:22;;;;;;;3.85;1.42;;;20.50;46.70;;;;;;4983148;28;20063;-62
2022/04/06 07:55:49;;;;;;;2.60;1.42;;;20.60;46.70;;;;;;4973284;28;20046;-62
2022/04/06 07:58:15;;;;;;;4.32;1.40;;;20.60;46.60;;;;;;4974758;28;20612;-62
2022/04/06 08:00:41;;;;;;;4.15;1.55;;;20.60;46.60;;;;;;4950812;28;20054;-62
2022/04/06 08:03:07;;;;;;;5.72;1.67;;;20.60;46.50;;;;;;4973233;28;20070;-62
2022/04/06 08:05:33;;;;;;;4.13;1.90;;;20.60;46.50;;;;;;4973519;28;20050;-62
2022/04/06 08:07:58;;;;;;;2.63;1.48;;;20.60;46.40;;;;;;4972653;28;20534;-63
2022/04/06 08:10:24;;;;;;;3.75;1.30;;;20.60;46.50;;;;;;4975077;28;20086;-62
2022/04/06 08:12:50;;;;;;;5.22;1.70;;;20.60;46.50;;;;;;4972499;28;21358;-62
2022/04/06 08:15:16;;;;;;;2.70;1.40;;;20.60;46.60;;;;;;4974308;28;20097;-62
2022/04/06 08:17:46;;;;;;;3.10;1.17;;;20.60;46.70;;;;;;4972299;28;20144;-63
2022/04/06 08:23:54;;;;;;;5.60;1.98;;;20.70;46.80;;;;;;4969508;28;20057;-62
2022/04/06 08:26:20;;;;;;;5.45;1.83;;;20.60;46.70;;;;;;4973939;28;20127;-64
2022/04/06 08:28:47;;;;;;;3.70;1.30;;;20.70;46.60;;;;;;4975406;28;20061;-64
2022/04/06 08:31:12;;;;;;;4.78;1.50;;;20.70;46.60;;;;;;4962558;28;20042;-62
2022/04/06 08:33:38;;;;;;;3.55;1.30;;;20.70;46.50;;;;;;4975343;28;20046;-62
2022/04/06 08:36:06;;;;;;;3.80;1.52;;;20.70;46.50;;;;;;4970759;28;20051;-64
2022/04/06 08:38:32;;;;;;;5.15;1.55;;;20.70;46.50;;;;;;4973914;28;20046;-64
2022/04/06 08:40:58;;;;;;;3.30;1.55;;;20.70;46.50;;;;;;4974686;28;20469;-63
2022/04/06 08:43:24;;;;;;;4.13;1.75;;;20.70;46.50;;;;;;4974919;28;20046;-63
2022/04/06 08:45:50;;;;;;;4.55;1.40;;;20.70;46.50;;;;;;4974493;28;20126;-63
2022/04/06 08:48:19;;;;;;;3.05;1.40;;;20.70;46.60;;;;;;4973820;28;20054;-63
2022/04/06 08:50:45;;;;;;;5.00;1.58;;;20.70;46.50;;;;;;4957120;28;20051;-62
2022/04/06 08:53:12;;;;;;;5.63;1.50;;;20.70;46.60;;;;;;4956678;28;20058;-63
2022/04/06 08:55:38;;;;;;;3.40;1.60;;;20.70;46.60;;;;;;4975736;28;20054;-63
2022/04/06 08:58:04;;;;;;;4.35;1.77;;;20.70;46.70;;;;;;4977688;28;20046;-63
2022/04/06 09:00:33;;;;;;;4.72;1.58;;;20.70;46.70;;;;;;4973596;28;20493;-63
2022/04/06 09:02:59;;;;;;;3.95;1.65;;;20.70;46.80;;;;;;4974093;28;20038;-64
2022/04/06 09:05:28;;;;;;;3.83;1.40;;;20.70;46.80;;;;;;4974548;28;20058;-64
2022/04/06 09:07:54;;;;;;;4.20;1.33;;;20.80;46.90;;;;;;4973130;28;20057;-63
2022/04/06 09:10:35;;;;;;;3.75;1.17;;;20.80;47.00;;;;;;4972524;28;20509;-65
2022/04/06 09:13:10;;;;;;;1.73;1.20;;;20.80;47.00;;;;;;4973750;28;20479;-64
2022/04/06 09:15:36;;;;;;;2.70;1.20;;;20.80;47.00;;;;;;4972907;28;20617;-64
2022/04/06 09:18:02;;;;;;;4.32;1.20;;;20.80;47.00;;;;;;4971973;28;20113;-64
2022/04/06 09:20:29;;;;;;;2.72;1.20;;;20.70;47.00;;;;;;4971804;28;20097;-64
2022/04/06 09:22:55;;;;;;;4.05;1.30;;;20.70;47.00;;;;;;4970962;28;20083;-64
2022/04/06 09:25:21;;;;;;;3.47;1.48;;;20.80;47.00;;;;;;4971170;28;20125;-65
2022/04/06 09:27:47;;;;;;;2.83;1.25;;;20.80;47.00;;;;;;4959968;28;20584;-64
2022/04/06 09:30:13;;;;;;;3.30;1.38;;;20.70;47.10;;;;;;4975568;28;20046;-66
2022/04/06 09:32:42;;;;;;;2.70;1.33;;;20.70;47.00;;;;;;4971113;28;20042;-66
2022/04/06 09:35:25;;;;;;;2.00;1.17;;;20.80;47.10;;;;;;4957484;28;20082;-65
2022/04/06 09:38:13;;;;;;;4.00;1.48;;;20.80;47.30;;;;;;4958756;28;20056;-65
2022/04/06 09:40:39;;;;;;;2.85;1.25;;;20.80;47.30;;;;;;4976192;28;20042;-72
2022/04/06 09:43:06;;;;;;;3.65;1.38;;;20.80;47.40;;;;;;4972436;28;20050;-68
2022/04/06 09:48:17;;;;;;;4.47;1.20;;;20.80;47.60;;;;;;4972569;28;20069;-61
2022/04/06 09:50:56;;;;;;;4.88;1.17;;;20.80;47.60;;;;;;4971296;28;20042;-67
2022/04/06 09:53:29;;;;;;;3.55;1.35;;;20.80;47.70;;;;;;4972715;28;20043;-64
2022/04/06 09:55:55;;;;;;;3.55;1.52;;;20.80;47.70;;;;;;4974787;28;20046;-63
2022/04/06 09:58:22;;;;;;;3.40;1.30;;;20.80;47.90;;;;;;4975359;28;20060;-63
2022/04/06 10:00:49;;;;;;;4.03;1.40;;;20.80;48.00;;;;;;4973080;28;20478;-62
2022/04/06 10:03:15;;;;;;;5.47;1.60;;;20.80;48.00;;;;;;4969600;28;20500;-62
2022/04/06 10:05:44;;;;;;;4.82;1.10;;;20.80;48.10;;;;;;4974534;28;20487;-63
2022/04/06 10:08:11;;;;;;;6.18;1.50;;;20.80;48.00;;;;;;4973610;28;20516;-63
2022/04/06 10:10:40;;;;;;;3.83;1.42;;;20.80;48.30;;;;;;4974214;28;20042;-63
2022/04/06 10:13:10;;;;;;;7.03;1.40;;;20.80;48.50;;;;;;4974692;28;20039;-63
2022/04/06 10:15:37;;;;;;;3.53;1.20;;;20.80;48.60;;;;;;4973676;28;20614;-64
2022/04/06 10:18:04;;;;;;;4.38;1.58;;;20.80;48.60;;;;;;4980446;28;20137;-62
2022/04/06 10:20:54;;;;;;;5.60;1.35;;;20.80;48.70;;;;;;4974294;28;20440;-62
2022/04/06 10:23:43;;;;;;;2.28;1.10;;;20.80;48.90;;;;;;4973521;28;20097;-62
2022/04/06 10:26:38;;;;;;;4.05;1.30;;;20.80;49.00;;;;;;4970258;28;20333;-62
2022/04/06 10:29:05;;;;;;;4.80;1.30;;;20.80;49.00;;;;;;4972293;28;20499;-61
2022/04/06 10:31:31;;;;;;;3.22;1.45;;;20.80;49.00;;;;;;4972916;28;20100;-62
2022/04/06 10:34:29;;;;;;;3.63;1.23;;;20.80;49.00;;;;;;4973129;28;20051;-62
2022/04/06 10:37:12;;;;;;;5.47;1.30;;;20.80;49.00;;;;;;4966409;28;20662;-64
2022/04/06 10:39:57;;;;;;;4.75;1.48;;;20.80;49.10;;;;;;4969983;28;20470;-64
2022/04/06 10:42:34;;;;;;;4.30;1.75;;;20.80;49.10;;;;;;4975642;28;20057;-63
2022/04/06 10:45:02;;;;;;;4.07;1.65;;;20.80;49.10;;;;;;4970388;28;20105;-63
2022/04/06 10:47:29;;;;;;;2.88;1.38;;;20.80;49.10;;;;;;4969679;28;20503;-63
2022/04/06 10:50:13;;;;;;;4.30;1.50;;;20.80;49.10;;;;;;4968476;28;20147;-65
2022/04/06 10:52:39;;;;;;;3.75;1.13;;;20.80;49.30;;;;;;4967104;28;20510;-64
2022/04/06 10:55:09;;;;;;;3.35;1.25;;;20.80;49.30;;;;;;4970676;28;20060;-63
2022/04/06 10:58:04;;;;;;;3.00;1.30;;;20.80;49.10;;;;;;4978261;28;20700;-64
2022/04/06 11:00:31;;;;;;;2.13;1.10;;;20.80;49.10;;;;;;4946149;28;20522;-63
2022/04/06 11:03:13;;;;;;;3.15;1.10;;;20.80;49.00;;;;;;4970004;28;20046;-66
2022/04/06 11:05:50;;;;;;;4.75;1.40;;;20.80;49.00;;;;;;4967414;28;20039;-65
2022/04/06 11:11:38;;;;;;;2.85;1.20;;;20.80;48.90;;;;;;4968607;28;20066;-64
2022/04/06 11:14:04;;;;;;;4.18;1.60;;;20.70;48.70;;;;;;4974776;28;20404;-64
2022/04/06 11:16:45;;;;;;;3.65;1.30;;;20.70;48.70;;;;;;4973634;28;20162;-63
2022/04/06 11:19:11;;;;;;;8.88;1.88;;;20.80;48.70;;;;;;4971391;28;20050;-62
2022/04/06 11:21:53;;;;;;;4.35;1.48;;;20.70;48.60;;;;;;4972753;28;20056;-65
2022/04/06 11:24:27;;;;;;;3.00;1.33;;;20.70;48.60;;;;;;4973045;28;20065;-63
2022/04/06 11:26:54;;;;;;;4.25;1.50;;;20.70;49.30;;;;;;4973024;28;20050;-63
2022/04/06 11:29:26;;;;;;;2.90;1.33;;;20.70;48.60;;;;;;4968457;28;20584;-63
2022/04/06 11:31:53;;;;;;;5.95;2.13;;;20.70;48.60;;;;;;4972832;28;20047;-63
2022/04/06 11:34:49;;;;;;;5.18;1.63;;;20.70;48.60;;;;;;4971893;28;20061;-62
2022/04/06 11:37:14;;;;;;;3.90;1.70;;;20.70;48.60;;;;;;4970072;28;20124;-63
2022/04/06 11:39:40;;;;;;;3.33;1.50;;;20.70;48.60;;;;;;4973966;28;20402;-63
2022/04/06 11:42:14;;;;;;;2.95;1.40;;;20.70;48.70;;;;;;4971622;28;20050;-63
2022/04/06 11:44:40;;;;;;;3.20;1.65;;;20.70;48.70;;;;;;4971205;28;20142;-62
2022/04/06 11:47:05;;;;;;;2.90;1.52;;;20.70;48.70;;;;;;4973367;28;20516;-64
2022/04/06 11:49:31;;;;;;;3.28;1.40;;;20.70;48.70;;;;;;4971941;28;20544;-65
2022/04/06 11:51:58;;;;;;;2.67;1.48;;;20.70;48.70;;;;;;4969546;28;20038;-63
2022/04/06 11:54:25;;;;;;;5.20;1.88;;;20.70;48.70;;;;;;4972074;28;20545;-62
2022/04/06 11:56:52;;;;;;;3.10;1.45;;;20.70;48.70;;;;;;4972762;28;20089;-64
2022/04/06 11:59:22;;;;;;;3.58;1.38;;;20.70;48.70;;;;;;4975458;28;20062;-63
2022/04/06 12:01:48;;;;;;;4.43;1.60;;;20.70;48.70;;;;;;4971928;28;20443;-63
2022/04/06 12:04:16;;;;;;;2.55;1.50;;;20.70;48.80;;;;;;4975399;28;20138;-63
2022/04/06 12:06:42;;;;;;;2.53;1.50;;;20.70;48.80;;;;;;4980900;28;20046;-64
2022/04/06 12:09:08;;;;;;;3.25;1.60;;;20.70;48.80;;;;;;4974721;28;20058;-64
2022/04/06 12:11:35;;;;;;;3.08;1.48;;;20.70;48.90;;;;;;4989303;28;20051;-63
2022/04/06 12:14:02;;;;;;;4.15;1.50;;;20.70;48.90;;;;;;4974888;28;20057;-64
2022/04/06 12:16:29;;;;;;;5.32;1.83;;;20.70;48.90;;;;;;4956355;28;20121;-63
2022/04/06 12:18:54;;;;;;;2.67;1.38;;;20.70;49.00;;;;;;4973018;28;20050;-63
2022/04/06 12:21:24;;;;;;;3.47;1.83;;;20.70;49.10;;;;;;4957492;28;20058;-62
2022/04/06 12:23:51;;;;;;;3.80;1.45;;;20.70;49.10;;;;;;4963860;28;20158;-63
2022/04/06 12:26:17;;;;;;;6.90;1.92;;;20.70;49.10;;;;;;4964747;28;20167;-64
2022/04/06 12:28:47;;;;;;;5.30;1.70;;;20.70;49.10;;;;;;4958789;28;20130;-64
2022/04/06 12:31:13;;;;;;;4.00;1.80;;;20.70;49.10;;;;;;4971385;28;20077;-62
2022/04/06 12:33:43;;;;;;;3.63;1.67;;;20.70;49.10;;;;;;4972918;28;20046;-63
2022/04/06 12:36:25;;;;;;;2.22;1.45;;;20.70;49.10;;;;;;4975131;28;20046;-64
2022/04/06 12:39:02;;;;;;;1.98;1.30;;;20.70;49.10;;;;;;4973380;28;20042;-62
2022/04/06 12:41:30;;;;;;;4.80;1.67;;;20.70;49.10;;;;;;4971999;28;20081;-62
2022/04/06 12:43:56;;;;;;;5.40;1.65;;;20.70;49.20;;;;;;4975409;28;20133;-62
2022/04/06 12:46:40;;;;;;;3.25;1.65;;;20.70;49.20;;;;;;4974659;28;20030;-63
2022/04/06 12:49:29;;;;;;;2.90;1.55;;;20.70;49.50;;;;;;4976163;28;20066;-62
2022/04/06 12:52:20;;;;;;;2.80;1.63;;;20.70;49.70;;;;;;4973885;28;20142;-62
2022/04/06 12:54:49;;;;;;;2.58;1.40;;;20.70;49.70;;;;;;4970868;28;20045;-63
2022/04/06 12:57:27;;;;;;;2.58;1.55;;;20.70;49.80;;;;;;4976250;28;20084;-62
2022/04/06 13:00:18;;;;;;;5.30;1.80;;;20.70;49.70;;;;;;4975781;28;20518;-61
2022/04/06 13:02:48;;;;;;;4.35;1.60;;;20.70;50.50;;;;;;4972890;28;20125;-61